createdAt,value
2022-11-23T00:01:55.121Z,17.85
2022-11-23T00:04:41.546Z,20.38
2022-11-23T00:07:28.614Z,19.70
2022-11-23T00:10:15.501Z,19.65
2022-11-23T00:13:02.582Z,18.67
2022-11-23T00:15:48.760Z,21.98
2022-11-23T00:18:35.016Z,20.42
2022-11-23T00:21:23.926Z,18.58
2022-11-23T00:24:12.905Z,17.65
2022-11-23T00:26:59.503Z,18.98
2022-11-23T00:29:45.792Z,16.55
2022-11-23T00:32:32.783Z,15.93
2022-11-23T00:35:19.172Z,16.95
2022-11-23T00:38:05.753Z,14.40
2022-11-23T00:40:58.267Z,15.95
2022-11-23T00:43:45.369Z,17.25
2022-11-23T00:46:31.944Z,18.52
2022-11-23T00:49:18.323Z,18.88
2022-11-23T00:52:04.833Z,19.02
2022-11-23T00:54:51.449Z,22.08
2022-11-23T00:57:38.487Z,18.75
2022-11-23T01:00:24.959Z,20.15
2022-11-23T01:03:11.684Z,18.73
2022-11-23T01:06:02.478Z,17.90
2022-11-23T01:08:52.538Z,18.35
2022-11-23T01:11:38.998Z,21.65
2022-11-23T01:14:26.255Z,20.58
2022-11-23T01:17:13.933Z,22.85
2022-11-23T01:20:00.317Z,22.67
2022-11-23T01:22:46.508Z,20.13
2022-11-23T01:25:32.615Z,20.42
2022-11-23T01:28:18.824Z,20.83
2022-11-23T01:31:06.911Z,18.70
2022-11-23T01:33:57.876Z,19.20
2022-11-23T01:36:44.647Z,22.65
2022-11-23T01:39:31.809Z,19.90
2022-11-23T01:42:19.310Z,24.45
2022-11-23T01:45:27.554Z,22.85
2022-11-23T01:48:15.687Z,20.13
2022-11-23T01:51:04.313Z,21.42
2022-11-23T01:53:53.459Z,20.27
2022-11-23T01:56:47.677Z,23.42
2022-11-23T01:59:35.517Z,16.77
2022-11-23T02:02:22.030Z,19.88
2022-11-23T02:05:13.487Z,22.92
2022-11-23T02:08:05.000Z,18.88
2022-11-23T02:10:51.279Z,17.67
2022-11-23T02:13:38.144Z,19.48
2022-11-23T02:16:24.492Z,17.48
2022-11-23T02:19:21.434Z,17.50
2022-11-23T02:22:11.033Z,20.88
2022-11-23T02:25:01.189Z,19.05
2022-11-23T02:27:47.361Z,18.27
2022-11-23T02:30:35.660Z,18.50
2022-11-23T02:33:22.846Z,18.20
2022-11-23T02:36:28.050Z,19.08
2022-11-23T02:39:20.740Z,20.70
2022-11-23T02:42:07.307Z,19.40
2022-11-23T02:45:09.457Z,19.30
2022-11-23T02:47:57.514Z,19.30
2022-11-23T02:50:43.790Z,18.80
2022-11-23T02:53:30.426Z,16.33
2022-11-23T02:56:17.944Z,17.92
2022-11-23T02:59:08.333Z,17.42
2022-11-23T03:01:55.266Z,15.98
2022-11-23T03:04:41.561Z,18.55
2022-11-23T03:07:27.788Z,17.60
2022-11-23T03:10:14.518Z,15.38
2022-11-23T03:13:01.280Z,17.02
2022-11-23T03:15:51.517Z,16.45
2022-11-23T03:18:39.758Z,15.90
2022-11-23T03:21:26.552Z,17.40
2022-11-23T03:24:12.854Z,17.75
2022-11-23T03:26:58.971Z,15.82
2022-11-23T03:29:44.992Z,18.25
2022-11-23T03:32:37.613Z,16.40
2022-11-23T03:35:24.233Z,18.50
2022-11-23T03:38:34.353Z,15.70
2022-11-23T03:41:23.114Z,15.82
2022-11-23T03:44:12.322Z,17.58
2022-11-23T03:46:59.481Z,16.77
2022-11-23T03:49:47.267Z,17.52
2022-11-23T03:52:34.008Z,16.25
2022-11-23T03:55:21.050Z,14.57
2022-11-23T03:58:08.150Z,20.88
2022-11-23T04:00:56.451Z,17.88
2022-11-23T04:03:43.004Z,18.10
2022-11-23T04:06:35.055Z,20.60
2022-11-23T04:09:29.039Z,18.80
2022-11-23T04:12:42.394Z,19.63
2022-11-23T04:15:29.209Z,21.70
2022-11-23T04:18:16.088Z,19.42
2022-11-23T04:21:02.482Z,23.08
2022-11-23T04:23:48.629Z,18.42
2022-11-23T04:26:35.867Z,20.67
2022-11-23T04:29:21.956Z,19.88
2022-11-23T04:32:12.071Z,19.55
2022-11-23T04:34:58.840Z,20.65
2022-11-23T04:37:45.988Z,19.27
2022-11-23T04:40:33.188Z,19.65
2022-11-23T04:43:24.077Z,18.63
2022-11-23T04:46:11.384Z,17.38
2022-11-23T04:48:57.612Z,20.75
2022-11-23T04:51:45.213Z,20.48
2022-11-23T04:54:32.423Z,19.98
2022-11-23T04:57:21.141Z,17.52
2022-11-23T05:00:10.735Z,18.70
2022-11-23T05:03:00.045Z,16.75
2022-11-23T05:05:49.133Z,19.50
2022-11-23T05:08:36.284Z,18.02
2022-11-23T05:11:46.583Z,20.65
2022-11-23T05:14:33.470Z,17.70
2022-11-23T05:17:19.840Z,18.95
2022-11-23T05:20:08.598Z,15.32
2022-11-23T05:22:58.235Z,19.42
2022-11-23T05:25:45.061Z,18.10
2022-11-23T05:28:40.827Z,17.75
2022-11-23T05:31:32.473Z,19.90
2022-11-23T05:34:18.646Z,17.35
2022-11-23T05:37:07.203Z,20.23
2022-11-23T05:39:56.536Z,18.55
2022-11-23T05:42:43.675Z,23.08
2022-11-23T05:45:35.392Z,19.40
2022-11-23T05:48:23.219Z,22.50
2022-11-23T05:51:16.581Z,20.65
2022-11-23T05:54:05.343Z,24.50
2022-11-23T05:57:02.919Z,24.33
2022-11-23T05:59:58.405Z,25.83
2022-11-23T06:03:24.413Z,23.83
2022-11-23T06:06:11.486Z,25.13
2022-11-23T06:09:00.295Z,24.00
2022-11-23T06:11:49.052Z,25.13
2022-11-23T06:14:38.932Z,24.65
2022-11-23T06:17:25.209Z,25.83
2022-11-23T06:20:15.456Z,31.20
2022-11-23T06:23:07.333Z,24.88
2022-11-23T06:25:53.624Z,29.38
2022-11-23T06:28:45.912Z,28.73
2022-11-23T06:31:33.691Z,28.23
2022-11-23T06:34:19.962Z,27.30
2022-11-23T06:37:06.814Z,26.92
2022-11-23T06:39:54.160Z,21.60
2022-11-23T06:42:40.907Z,19.77
2022-11-23T06:45:37.304Z,25.25
2022-11-23T06:48:28.801Z,23.02
2022-11-23T06:51:17.753Z,26.98
2022-11-23T06:54:19.672Z,26.30
2022-11-23T06:57:09.010Z,26.65
2022-11-23T06:59:56.033Z,26.95
2022-11-23T07:02:54.397Z,24.85
2022-11-23T07:05:43.468Z,16.95
2022-11-23T07:08:29.838Z,24.23
2022-11-23T07:11:20.152Z,24.52
2022-11-23T07:14:06.476Z,28.58
2022-11-23T07:16:56.551Z,27.75
2022-11-23T07:19:42.957Z,30.45
2022-11-23T07:22:30.357Z,31.33
2022-11-23T07:25:19.726Z,33.20
2022-11-23T07:28:07.998Z,29.23
2022-11-23T07:30:54.618Z,29.35
2022-11-23T07:33:43.989Z,26.27
2022-11-23T07:36:30.810Z,27.08
2022-11-23T07:39:18.036Z,24.38
2022-11-23T07:42:30.937Z,26.88
2022-11-23T07:45:11.383Z,29.25
2022-11-23T07:48:03.848Z,31.67
2022-11-23T07:50:53.724Z,30.95
2022-11-23T07:53:40.087Z,32.83
2022-11-23T07:56:26.279Z,28.55
2022-11-23T07:59:13.518Z,28.02
2022-11-23T08:01:59.809Z,27.42
2022-11-23T08:04:46.548Z,29.85
2022-11-23T08:07:32.901Z,28.95
2022-11-23T08:10:19.309Z,28.60
2022-11-23T08:13:06.582Z,33.72
2022-11-23T08:15:55.774Z,28.58
2022-11-23T08:18:42.662Z,32.40
2022-11-23T08:21:28.794Z,34.00
2022-11-23T08:24:15.607Z,31.45
2022-11-23T08:27:01.998Z,30.73
2022-11-23T08:29:48.367Z,25.73
2022-11-23T08:32:34.878Z,27.13
2022-11-23T08:35:22.199Z,27.33
2022-11-23T08:38:17.175Z,32.99
2022-11-23T08:41:05.466Z,32.53
2022-11-23T08:43:53.034Z,31.80
2022-11-23T08:46:39.674Z,31.40
2022-11-23T08:49:26.626Z,33.13
2022-11-23T08:52:14.108Z,34.30
2022-11-23T08:55:01.499Z,29.20
2022-11-23T08:57:47.922Z,31.65
2022-11-23T09:00:34.239Z,32.08
2022-11-23T09:03:21.547Z,30.43
2022-11-23T09:06:08.058Z,33.05
2022-11-23T09:08:54.453Z,34.88
2022-11-23T09:11:40.636Z,36.25
2022-11-23T09:14:27.947Z,33.40
2022-11-23T09:17:15.056Z,33.55
2022-11-23T09:20:01.237Z,31.85
2022-11-23T09:22:53.921Z,31.17
2022-11-23T09:25:40.175Z,33.50
2022-11-23T09:28:45.155Z,37.93
2022-11-23T09:31:31.416Z,32.97
2022-11-23T09:34:17.556Z,34.63
2022-11-23T09:37:03.940Z,32.80
2022-11-23T09:39:50.853Z,29.42
2022-11-23T09:42:56.646Z,28.27
2022-11-23T09:45:56.796Z,32.22
2022-11-23T09:48:46.176Z,33.70
2022-11-23T09:51:33.018Z,32.60
2022-11-23T09:54:32.435Z,32.65
2022-11-23T09:57:21.641Z,38.63
2022-11-23T10:00:10.073Z,39.70
2022-11-23T10:02:56.552Z,44.53
2022-11-23T10:05:45.450Z,44.08
2022-11-23T10:08:37.494Z,38.38
2022-11-23T10:11:42.464Z,29.33
2022-11-23T10:14:28.870Z,38.05
2022-11-23T10:17:24.559Z,34.63
2022-11-23T10:20:10.783Z,32.92
2022-11-23T10:22:56.757Z,35.78
2022-11-23T10:25:47.446Z,32.83
2022-11-23T10:28:37.011Z,31.38
2022-11-23T10:31:24.905Z,30.58
2022-11-23T10:34:13.206Z,31.05
2022-11-23T10:36:59.538Z,28.63
2022-11-23T10:39:45.869Z,29.23
2022-11-23T10:42:32.690Z,31.50
2022-11-23T10:45:20.877Z,33.35
2022-11-23T10:48:08.608Z,35.05
2022-11-23T10:50:56.257Z,32.38
2022-11-23T10:53:42.638Z,34.08
2022-11-23T10:56:29.971Z,31.90
2022-11-23T10:59:33.059Z,30.58
2022-11-23T11:02:21.843Z,31.73
2022-11-23T11:05:35.442Z,28.75
2022-11-23T11:08:31.873Z,28.23
2022-11-23T11:11:36.227Z,26.58
2022-11-23T11:14:23.660Z,28.27
2022-11-23T11:17:26.302Z,35.30
2022-11-23T11:20:25.985Z,33.45
2022-11-23T11:23:20.396Z,32.38
2022-11-23T11:26:25.985Z,34.13
2022-11-23T11:29:25.897Z,36.78
2022-11-23T11:32:22.442Z,34.05
2022-11-23T11:35:26.409Z,33.42
2022-11-23T11:38:15.834Z,34.55
2022-11-23T11:41:06.731Z,36.83
2022-11-23T11:43:59.332Z,35.00
2022-11-23T11:46:52.054Z,36.17
2022-11-23T11:49:43.388Z,35.85
2022-11-23T11:52:34.340Z,32.35
2022-11-23T11:55:26.439Z,36.97
2022-11-23T11:58:18.494Z,35.80
2022-11-23T12:01:16.985Z,39.05
2022-11-23T12:04:08.285Z,34.50
2022-11-23T12:07:06.513Z,36.17
2022-11-23T12:09:56.728Z,39.65
2022-11-23T12:12:43.184Z,35.58
2022-11-23T12:15:48.987Z,40.10
2022-11-23T12:18:55.889Z,35.50
2022-11-23T12:22:00.728Z,40.58
2022-11-23T12:24:56.677Z,43.42
2022-11-23T12:28:00.093Z,41.65
2022-11-23T12:31:24.613Z,42.80
2022-11-23T12:34:15.044Z,45.30
2022-11-23T12:37:10.154Z,40.92
2022-11-23T12:40:23.436Z,40.60
2022-11-23T12:43:13.964Z,39.88
2022-11-23T12:46:06.578Z,40.53
2022-11-23T12:48:55.716Z,44.23
2022-11-23T12:52:05.519Z,40.78
2022-11-23T12:55:07.210Z,41.80
2022-11-23T12:58:14.789Z,44.38
2022-11-23T13:01:16.289Z,45.40
2022-11-23T13:04:14.925Z,44.47
2022-11-23T13:07:29.420Z,46.92
2022-11-23T13:10:23.880Z,47.95
2022-11-23T13:13:16.420Z,45.24
2022-11-23T13:16:15.563Z,48.40
2022-11-23T13:19:09.831Z,51.60
2022-11-23T13:21:56.642Z,42.42
2022-11-23T13:25:01.380Z,44.22
2022-11-23T13:27:51.618Z,44.85
2022-11-23T13:31:07.152Z,46.83
2022-11-23T13:33:50.830Z,43.78
2022-11-23T13:39:54.274Z,44.08
2022-11-23T13:42:42.226Z,45.85
2022-11-23T13:45:31.121Z,46.28
2022-11-23T13:48:48.993Z,44.03
2022-11-23T13:51:30.290Z,43.15
2022-11-23T13:54:21.244Z,44.60
2022-11-23T13:57:12.917Z,43.88
2022-11-23T14:00:20.999Z,47.95
2022-11-23T14:03:35.183Z,40.81
2022-11-23T14:06:22.492Z,42.28
2022-11-23T14:09:27.513Z,39.42
2022-11-23T14:12:20.871Z,42.88
2022-11-23T14:15:10.157Z,40.20
2022-11-23T14:18:15.281Z,40.80
2022-11-23T14:21:10.840Z,42.28
2022-11-23T14:24:16.297Z,44.10
2022-11-23T14:27:31.197Z,37.67
2022-11-23T14:30:21.708Z,43.08
2022-11-23T14:33:11.703Z,39.25
2022-11-23T14:35:58.380Z,34.88
2022-11-23T14:38:54.480Z,31.90
2022-11-23T14:41:42.472Z,32.90
2022-11-23T14:44:32.938Z,36.97
2022-11-23T14:47:29.569Z,34.88
2022-11-23T14:50:23.746Z,30.52
2022-11-23T14:53:16.908Z,30.55
2022-11-23T14:56:04.223Z,28.73
2022-11-23T14:58:51.982Z,28.75
2022-11-23T15:01:39.125Z,28.40
2022-11-23T15:04:38.683Z,26.00
2022-11-23T15:07:29.106Z,27.30
2022-11-23T15:10:24.559Z,28.27
2022-11-23T15:13:18.233Z,32.67
2022-11-23T15:16:06.300Z,28.13
2022-11-23T15:18:53.022Z,28.08
2022-11-23T15:21:39.396Z,29.55
2022-11-23T15:24:26.945Z,30.52
2022-11-23T15:27:19.360Z,30.23
2022-11-23T15:30:27.780Z,31.17
2022-11-23T15:33:14.809Z,31.13
2022-11-23T15:36:03.264Z,29.45
2022-11-23T15:38:50.738Z,28.83
2022-11-23T15:41:38.489Z,30.40
2022-11-23T15:44:30.824Z,38.08
2022-11-23T15:47:21.526Z,33.13
2022-11-23T15:50:16.163Z,33.58
2022-11-23T15:53:03.585Z,33.22
2022-11-23T15:55:50.916Z,33.47
2022-11-23T15:58:38.301Z,27.83
2022-11-23T16:01:25.516Z,29.08
2022-11-23T16:04:27.203Z,34.35
2022-11-23T16:07:21.648Z,31.08
2022-11-23T16:10:17.457Z,29.75
2022-11-23T16:13:06.759Z,29.60
2022-11-23T16:16:01.076Z,28.27
2022-11-23T16:18:48.087Z,30.20
2022-11-23T16:21:35.284Z,29.30
2022-11-23T16:24:23.318Z,27.92
2022-11-23T16:27:13.988Z,27.73
2022-11-23T16:30:03.372Z,28.85
2022-11-23T16:32:50.536Z,30.88
2022-11-23T16:35:37.732Z,28.25
2022-11-23T16:38:25.054Z,26.92
2022-11-23T16:41:12.494Z,25.17
2022-11-23T16:43:59.516Z,28.35
2022-11-23T16:46:48.637Z,27.48
2022-11-23T16:49:35.611Z,29.13
2022-11-23T16:52:23.638Z,29.00
2022-11-23T16:55:10.925Z,26.30
2022-11-23T16:57:57.514Z,32.05
2022-11-23T17:00:44.591Z,27.45
2022-11-23T17:03:34.692Z,27.52
2022-11-23T17:06:24.617Z,32.15
2022-11-23T17:09:12.002Z,31.92
2022-11-23T17:11:58.962Z,29.00
2022-11-23T17:14:46.710Z,31.45
2022-11-23T17:17:33.470Z,30.92
2022-11-23T17:20:20.100Z,33.53
2022-11-23T17:23:06.769Z,33.17
2022-11-23T17:25:53.068Z,35.70
2022-11-23T17:28:40.282Z,27.90
2022-11-23T17:31:27.812Z,33.53
2022-11-23T17:34:14.988Z,35.58
2022-11-23T17:37:01.869Z,33.88
2022-11-23T17:39:50.008Z,36.70
2022-11-23T17:42:36.295Z,37.42
2022-11-23T17:45:23.051Z,33.40
2022-11-23T17:48:13.204Z,30.85
2022-11-23T17:51:00.004Z,32.42
2022-11-23T17:53:47.931Z,36.42
2022-11-23T17:56:34.219Z,30.55
2022-11-23T17:59:21.225Z,27.02
2022-11-23T18:02:34.920Z,29.52
2022-11-23T18:05:26.734Z,23.90
2022-11-23T18:08:13.587Z,30.65
2022-11-23T18:10:59.966Z,28.60
2022-11-23T18:13:48.260Z,26.63
2022-11-23T18:16:34.473Z,27.88
2022-11-23T18:19:21.344Z,30.05
2022-11-23T18:22:07.731Z,29.80
2022-11-23T18:24:54.084Z,28.13
2022-11-23T18:27:40.925Z,23.15
2022-11-23T18:30:28.116Z,24.33
2022-11-23T18:33:14.425Z,30.15
2022-11-23T18:36:05.314Z,30.60
2022-11-23T18:38:52.593Z,31.17
2022-11-23T18:41:38.825Z,30.80
2022-11-23T18:44:25.602Z,23.35
2022-11-23T18:47:12.385Z,21.48
2022-11-23T18:50:11.964Z,20.95
2022-11-23T18:53:19.053Z,17.92
2022-11-23T18:56:05.926Z,19.00
2022-11-23T18:58:53.154Z,18.98
2022-11-23T19:01:43.004Z,25.77
2022-11-23T19:04:33.525Z,20.90
2022-11-23T19:07:26.606Z,17.63
2022-11-23T19:10:13.518Z,18.13
2022-11-23T19:13:05.131Z,19.20
2022-11-23T19:15:52.821Z,18.80
2022-11-23T19:18:39.448Z,18.33
2022-11-23T19:21:29.140Z,23.10
2022-11-23T19:24:15.633Z,19.88
2022-11-23T19:27:02.170Z,24.17
2022-11-23T19:29:48.629Z,26.08
2022-11-23T19:32:35.140Z,17.60
2022-11-23T19:35:21.674Z,19.90
2022-11-23T19:38:11.591Z,18.38
2022-11-23T19:40:58.104Z,21.67
2022-11-23T19:43:45.607Z,22.88
2022-11-23T19:50:08.513Z,21.98
2022-11-23T19:53:11.733Z,20.08
2022-11-23T19:56:03.285Z,22.75
2022-11-23T19:58:53.729Z,23.20
2022-11-23T20:01:40.012Z,25.77
2022-11-23T20:04:26.337Z,29.65
2022-11-23T20:07:13.245Z,37.50
2022-11-23T20:09:59.691Z,34.97
2022-11-23T20:12:46.126Z,35.97
2022-11-23T20:15:33.460Z,36.78
2022-11-23T20:18:19.733Z,36.22
2022-11-23T20:21:11.993Z,33.17
2022-11-23T20:24:04.769Z,36.28
2022-11-23T20:29:38.238Z,31.30
2022-11-23T20:32:25.148Z,30.50
2022-11-23T20:35:11.429Z,30.17
2022-11-23T20:37:58.021Z,31.42
2022-11-23T20:40:45.176Z,30.05
2022-11-23T20:43:31.417Z,29.25
2022-11-23T20:46:38.302Z,31.88
2022-11-23T20:49:25.403Z,33.00
2022-11-23T20:52:12.840Z,34.03
2022-11-23T20:55:00.874Z,32.85
2022-11-23T20:57:47.837Z,30.70
2022-11-23T21:00:34.532Z,30.08
2022-11-23T21:03:21.112Z,32.28
2022-11-23T21:06:12.098Z,29.52
2022-11-23T21:08:59.650Z,29.27
2022-11-23T21:12:04.576Z,30.38
2022-11-23T21:14:51.213Z,29.40
2022-11-23T21:17:38.737Z,28.05
2022-11-23T21:20:26.814Z,28.02
2022-11-23T21:23:14.110Z,28.05
2022-11-23T21:26:09.877Z,27.98
2022-11-23T21:28:57.647Z,29.55
2022-11-23T21:31:45.084Z,26.85
2022-11-23T21:34:33.020Z,28.38
2022-11-23T21:37:20.631Z,29.33
2022-11-23T21:40:08.311Z,30.27
2022-11-23T21:42:55.774Z,28.88
2022-11-23T21:45:42.400Z,29.45
2022-11-23T21:48:29.681Z,27.17
2022-11-23T21:51:16.569Z,25.95
2022-11-23T21:54:04.691Z,25.13
2022-11-23T21:56:52.198Z,29.95
2022-11-23T21:59:39.311Z,25.45
2022-11-23T22:02:26.730Z,25.80
2022-11-23T22:05:13.990Z,28.63
2022-11-23T22:11:12.586Z,28.83
2022-11-23T22:14:00.613Z,26.02
2022-11-23T22:16:50.406Z,29.40
2022-11-23T22:19:36.920Z,24.63
2022-11-23T22:22:24.345Z,27.27
2022-11-23T22:25:16.492Z,25.38
2022-11-23T22:28:03.173Z,21.10
2022-11-23T22:30:56.019Z,25.00
2022-11-23T22:33:43.915Z,22.65
2022-11-23T22:36:30.565Z,24.00
2022-11-23T22:39:17.551Z,24.42
2022-11-23T22:42:04.349Z,22.45
2022-11-23T22:44:51.812Z,24.38
2022-11-23T22:47:39.140Z,24.40
2022-11-23T22:50:25.990Z,22.20
2022-11-23T22:53:13.058Z,26.40
2022-11-23T22:56:03.272Z,24.38
2022-11-23T22:58:50.016Z,22.73
2022-11-23T23:01:36.703Z,20.90
2022-11-23T23:04:23.127Z,22.02
2022-11-23T23:07:10.418Z,21.10
2022-11-23T23:09:57.680Z,19.90
2022-11-23T23:12:44.779Z,19.40
2022-11-23T23:19:05.766Z,20.43
2022-11-23T23:21:53.009Z,22.90
2022-11-23T23:24:40.232Z,19.40
2022-11-23T23:27:27.634Z,23.77
2022-11-23T23:30:14.084Z,24.45
2022-11-23T23:33:00.279Z,23.67
2022-11-23T23:35:46.891Z,22.73
2022-11-23T23:38:33.805Z,24.77
2022-11-23T23:41:20.872Z,22.63
2022-11-23T23:48:10.449Z,22.25
2022-11-23T23:50:56.776Z,23.20
2022-11-23T23:57:11.846Z,21.90
2022-11-23T23:59:58.105Z,22.50
